sensor_id;sensor_type;location;lat;lon;timestamp;P1;durP1;ratioP1;P2;durP2;ratioP2
29776;SDS011;16677;52.224;7.484;2023-05-27T00:02:12;15.20;;;6.10;;
29776;SDS011;16677;52.224;7.484;2023-05-27T00:04:40;17.37;;;6.13;;
29776;SDS011;16677;52.224;7.484;2023-05-27T00:07:07;18.20;;;6.60;;
29776;SDS011;16677;52.224;7.484;2023-05-27T00:09:35;14.63;;;7.07;;
29776;SDS011;16677;52.224;7.484;2023-05-27T00:12:02;19.13;;;7.25;;
29776;SDS011;16677;52.224;7.484;2023-05-27T00:14:30;17.20;;;6.72;;
29776;SDS011;16677;52.224;7.484;2023-05-27T00:16:57;21.83;;;7.07;;
29776;SDS011;16677;52.224;7.484;2023-05-27T00:19:25;15.25;;;6.75;;
29776;SDS011;16677;52.224;7.484;2023-05-27T00:21:52;17.60;;;7.10;;
29776;SDS011;16677;52.224;7.484;2023-05-27T00:24:19;19.85;;;7.10;;
29776;SDS011;16677;52.224;7.484;2023-05-27T00:26:47;18.98;;;7.00;;
29776;SDS011;16677;52.224;7.484;2023-05-27T00:29:15;19.37;;;7.20;;
29776;SDS011;16677;52.224;7.484;2023-05-27T00:31:43;17.97;;;7.20;;
29776;SDS011;16677;52.224;7.484;2023-05-27T00:34:11;17.80;;;7.18;;
29776;SDS011;16677;52.224;7.484;2023-05-27T00:36:38;19.15;;;7.47;;
29776;SDS011;16677;52.224;7.484;2023-05-27T00:39:05;15.90;;;7.37;;
29776;SDS011;16677;52.224;7.484;2023-05-27T00:41:32;15.23;;;7.05;;
29776;SDS011;16677;52.224;7.484;2023-05-27T00:44:00;18.58;;;7.15;;
29776;SDS011;16677;52.224;7.484;2023-05-27T00:46:28;16.25;;;7.25;;
29776;SDS011;16677;52.224;7.484;2023-05-27T00:48:56;19.15;;;7.38;;
29776;SDS011;16677;52.224;7.484;2023-05-27T00:51:24;18.35;;;8.05;;
29776;SDS011;16677;52.224;7.484;2023-05-27T00:53:51;17.98;;;7.47;;
29776;SDS011;16677;52.224;7.484;2023-05-27T00:56:18;16.40;;;7.30;;
29776;SDS011;16677;52.224;7.484;2023-05-27T00:58:46;19.30;;;8.00;;
29776;SDS011;16677;52.224;7.484;2023-05-27T01:01:14;18.27;;;8.00;;
29776;SDS011;16677;52.224;7.484;2023-05-27T01:03:41;19.77;;;8.48;;
29776;SDS011;16677;52.224;7.484;2023-05-27T01:06:17;18.95;;;7.60;;
29776;SDS011;16677;52.224;7.484;2023-05-27T01:12:14;20.35;;;8.00;;
29776;SDS011;16677;52.224;7.484;2023-05-27T01:14:53;19.00;;;8.10;;
29776;SDS011;16677;52.224;7.484;2023-05-27T01:17:24;16.70;;;7.55;;
29776;SDS011;16677;52.224;7.484;2023-05-27T01:19:54;18.65;;;7.72;;
29776;SDS011;16677;52.224;7.484;2023-05-27T01:22:29;21.27;;;8.57;;
29776;SDS011;16677;52.224;7.484;2023-05-27T01:24:56;19.30;;;7.50;;
29776;SDS011;16677;52.224;7.484;2023-05-27T01:27:24;18.30;;;8.23;;
29776;SDS011;16677;52.224;7.484;2023-05-27T01:29:51;18.60;;;7.75;;
29776;SDS011;16677;52.224;7.484;2023-05-27T01:32:30;18.67;;;7.88;;
29776;SDS011;16677;52.224;7.484;2023-05-27T01:37:59;19.27;;;8.30;;
29776;SDS011;16677;52.224;7.484;2023-05-27T01:40:32;20.13;;;8.63;;
29776;SDS011;16677;52.224;7.484;2023-05-27T01:43:00;21.77;;;8.43;;
29776;SDS011;16677;52.224;7.484;2023-05-27T01:45:29;19.75;;;8.40;;
29776;SDS011;16677;52.224;7.484;2023-05-27T01:47:56;20.73;;;8.18;;
29776;SDS011;16677;52.224;7.484;2023-05-27T01:50:23;18.07;;;7.17;;
29776;SDS011;16677;52.224;7.484;2023-05-27T01:52:51;19.67;;;7.30;;
29776;SDS011;16677;52.224;7.484;2023-05-27T01:57:45;16.30;;;6.83;;
29776;SDS011;16677;52.224;7.484;2023-05-27T02:00:13;20.47;;;7.87;;
29776;SDS011;16677;52.224;7.484;2023-05-27T02:02:41;21.03;;;7.67;;
29776;SDS011;16677;52.224;7.484;2023-05-27T02:05:09;21.47;;;8.80;;
29776;SDS011;16677;52.224;7.484;2023-05-27T02:07:36;19.13;;;7.57;;
29776;SDS011;16677;52.224;7.484;2023-05-27T02:10:05;18.10;;;7.93;;
29776;SDS011;16677;52.224;7.484;2023-05-27T02:12:33;25.77;;;8.10;;
29776;SDS011;16677;52.224;7.484;2023-05-27T02:15:00;14.70;;;8.47;;
29776;SDS011;16677;52.224;7.484;2023-05-27T02:17:27;17.20;;;7.50;;
29776;SDS011;16677;52.224;7.484;2023-05-27T02:19:55;18.20;;;7.37;;
29776;SDS011;16677;52.224;7.484;2023-05-27T02:22:22;18.37;;;7.83;;
29776;SDS011;16677;52.224;7.484;2023-05-27T02:24:49;17.40;;;7.73;;
29776;SDS011;16677;52.224;7.484;2023-05-27T02:27:16;16.60;;;7.43;;
29776;SDS011;16677;52.224;7.484;2023-05-27T02:29:43;17.43;;;7.70;;
29776;SDS011;16677;52.224;7.484;2023-05-27T02:32:11;17.17;;;7.90;;
29776;SDS011;16677;52.224;7.484;2023-05-27T02:34:38;15.90;;;7.77;;
29776;SDS011;16677;52.224;7.484;2023-05-27T02:37:07;18.33;;;8.23;;
29776;SDS011;16677;52.224;7.484;2023-05-27T02:39:34;20.27;;;8.73;;
29776;SDS011;16677;52.224;7.484;2023-05-27T02:42:01;20.57;;;8.53;;
29776;SDS011;16677;52.224;7.484;2023-05-27T02:44:29;16.27;;;8.27;;
29776;SDS011;16677;52.224;7.484;2023-05-27T02:46:56;16.97;;;8.33;;
29776;SDS011;16677;52.224;7.484;2023-05-27T02:49:23;22.33;;;8.60;;
29776;SDS011;16677;52.224;7.484;2023-05-27T02:51:50;18.63;;;8.57;;
29776;SDS011;16677;52.224;7.484;2023-05-27T02:54:20;18.50;;;9.07;;
29776;SDS011;16677;52.224;7.484;2023-05-27T02:56:47;20.60;;;8.47;;
29776;SDS011;16677;52.224;7.484;2023-05-27T03:04:10;26.15;;;11.75;;
29776;SDS011;16677;52.224;7.484;2023-05-27T03:06:37;18.63;;;10.17;;
29776;SDS011;16677;52.224;7.484;2023-05-27T03:09:04;20.23;;;9.43;;
29776;SDS011;16677;52.224;7.484;2023-05-27T03:11:33;23.10;;;10.07;;
29776;SDS011;16677;52.224;7.484;2023-05-27T03:14:01;21.63;;;9.47;;
29776;SDS011;16677;52.224;7.484;2023-05-27T03:16:28;19.00;;;8.97;;
29776;SDS011;16677;52.224;7.484;2023-05-27T03:18:55;19.40;;;8.83;;
29776;SDS011;16677;52.224;7.484;2023-05-27T03:21:22;24.97;;;9.80;;
29776;SDS011;16677;52.224;7.484;2023-05-27T03:23:49;22.73;;;8.97;;
29776;SDS011;16677;52.224;7.484;2023-05-27T03:26:16;21.10;;;9.37;;
29776;SDS011;16677;52.224;7.484;2023-05-27T03:28:44;22.37;;;8.43;;
29776;SDS011;16677;52.224;7.484;2023-05-27T03:31:11;16.47;;;9.20;;
29776;SDS011;16677;52.224;7.484;2023-05-27T03:33:39;21.40;;;10.07;;
29776;SDS011;16677;52.224;7.484;2023-05-27T03:36:06;25.02;;;11.40;;
29776;SDS011;16677;52.224;7.484;2023-05-27T03:38:34;24.23;;;10.68;;
29776;SDS011;16677;52.224;7.484;2023-05-27T03:41:01;27.37;;;9.83;;
29776;SDS011;16677;52.224;7.484;2023-05-27T03:43:28;27.30;;;9.50;;
29776;SDS011;16677;52.224;7.484;2023-05-27T03:45:55;25.57;;;8.97;;
29776;SDS011;16677;52.224;7.484;2023-05-27T03:48:24;20.67;;;10.93;;
29776;SDS011;16677;52.224;7.484;2023-05-27T03:50:51;23.52;;;11.18;;
29776;SDS011;16677;52.224;7.484;2023-05-27T03:53:18;24.47;;;9.97;;
29776;SDS011;16677;52.224;7.484;2023-05-27T03:55:45;18.47;;;8.93;;
29776;SDS011;16677;52.224;7.484;2023-05-27T03:58:13;27.87;;;9.60;;
29776;SDS011;16677;52.224;7.484;2023-05-27T04:00:40;23.10;;;8.63;;
29776;SDS011;16677;52.224;7.484;2023-05-27T04:03:08;16.97;;;8.40;;
29776;SDS011;16677;52.224;7.484;2023-05-27T04:05:36;20.73;;;8.27;;
29776;SDS011;16677;52.224;7.484;2023-05-27T04:08:03;14.87;;;8.30;;
29776;SDS011;16677;52.224;7.484;2023-05-27T04:10:31;15.53;;;7.30;;
29776;SDS011;16677;52.224;7.484;2023-05-27T04:12:58;19.20;;;7.27;;
29776;SDS011;16677;52.224;7.484;2023-05-27T04:15:25;21.87;;;8.97;;
29776;SDS011;16677;52.224;7.484;2023-05-27T04:17:52;15.73;;;7.50;;
29776;SDS011;16677;52.224;7.484;2023-05-27T04:20:20;17.60;;;8.20;;
29776;SDS011;16677;52.224;7.484;2023-05-27T04:22:47;19.15;;;8.77;;
29776;SDS011;16677;52.224;7.484;2023-05-27T04:25:14;18.52;;;8.18;;
29776;SDS011;16677;52.224;7.484;2023-05-27T04:27:41;17.83;;;8.07;;
29776;SDS011;16677;52.224;7.484;2023-05-27T04:30:09;15.52;;;8.05;;
29776;SDS011;16677;52.224;7.484;2023-05-27T04:32:37;20.13;;;8.48;;
29776;SDS011;16677;52.224;7.484;2023-05-27T04:35:05;16.30;;;8.52;;
29776;SDS011;16677;52.224;7.484;2023-05-27T04:37:37;19.05;;;8.50;;
29776;SDS011;16677;52.224;7.484;2023-05-27T04:40:07;19.92;;;8.60;;
29776;SDS011;16677;52.224;7.484;2023-05-27T04:42:35;16.17;;;8.15;;
29776;SDS011;16677;52.224;7.484;2023-05-27T04:45:05;19.42;;;8.43;;
29776;SDS011;16677;52.224;7.484;2023-05-27T04:47:35;16.77;;;8.40;;
29776;SDS011;16677;52.224;7.484;2023-05-27T04:50:05;16.60;;;8.27;;
29776;SDS011;16677;52.224;7.484;2023-05-27T04:52:34;20.17;;;8.30;;
29776;SDS011;16677;52.224;7.484;2023-05-27T04:55:10;17.77;;;7.90;;
29776;SDS011;16677;52.224;7.484;2023-05-27T04:57:37;17.75;;;8.40;;
29776;SDS011;16677;52.224;7.484;2023-05-27T05:00:07;17.33;;;8.17;;
29776;SDS011;16677;52.224;7.484;2023-05-27T05:02:35;16.63;;;7.77;;
29776;SDS011;16677;52.224;7.484;2023-05-27T05:07:41;16.83;;;7.68;;
29776;SDS011;16677;52.224;7.484;2023-05-27T05:10:10;19.03;;;8.30;;
29776;SDS011;16677;52.224;7.484;2023-05-27T05:12:38;18.17;;;8.55;;
29776;SDS011;16677;52.224;7.484;2023-05-27T05:15:06;19.52;;;8.60;;
29776;SDS011;16677;52.224;7.484;2023-05-27T05:17:34;16.70;;;8.03;;
29776;SDS011;16677;52.224;7.484;2023-05-27T05:20:02;19.50;;;8.18;;
29776;SDS011;16677;52.224;7.484;2023-05-27T05:22:35;18.80;;;8.10;;
29776;SDS011;16677;52.224;7.484;2023-05-27T05:25:24;17.95;;;8.02;;
29776;SDS011;16677;52.224;7.484;2023-05-27T05:27:51;18.03;;;8.20;;
29776;SDS011;16677;52.224;7.484;2023-05-27T05:30:23;20.40;;;8.13;;
29776;SDS011;16677;52.224;7.484;2023-05-27T05:32:53;18.17;;;8.77;;
29776;SDS011;16677;52.224;7.484;2023-05-27T05:35:24;20.63;;;8.07;;
29776;SDS011;16677;52.224;7.484;2023-05-27T05:37:54;17.92;;;7.88;;
29776;SDS011;16677;52.224;7.484;2023-05-27T05:40:35;17.58;;;7.38;;
29776;SDS011;16677;52.224;7.484;2023-05-27T05:43:06;17.67;;;7.80;;
29776;SDS011;16677;52.224;7.484;2023-05-27T05:45:49;18.52;;;8.05;;
29776;SDS011;16677;52.224;7.484;2023-05-27T05:48:22;17.70;;;7.50;;
29776;SDS011;16677;52.224;7.484;2023-05-27T05:51:06;14.82;;;7.30;;
29776;SDS011;16677;52.224;7.484;2023-05-27T05:53:37;18.23;;;7.65;;
29776;SDS011;16677;52.224;7.484;2023-05-27T05:56:13;16.00;;;6.80;;
29776;SDS011;16677;52.224;7.484;2023-05-27T05:58:41;16.27;;;7.10;;
29776;SDS011;16677;52.224;7.484;2023-05-27T06:01:08;16.33;;;6.85;;
29776;SDS011;16677;52.224;7.484;2023-05-27T06:03:38;16.08;;;6.47;;
29776;SDS011;16677;52.224;7.484;2023-05-27T06:06:08;17.02;;;7.05;;
29776;SDS011;16677;52.224;7.484;2023-05-27T06:08:36;18.08;;;6.70;;
29776;SDS011;16677;52.224;7.484;2023-05-27T06:11:06;13.77;;;6.30;;
29776;SDS011;16677;52.224;7.484;2023-05-27T06:13:39;17.38;;;6.90;;
29776;SDS011;16677;52.224;7.484;2023-05-27T06:16:12;18.35;;;6.30;;
29776;SDS011;16677;52.224;7.484;2023-05-27T06:18:41;18.05;;;6.57;;
29776;SDS011;16677;52.224;7.484;2023-05-27T06:21:14;16.50;;;6.33;;
29776;SDS011;16677;52.224;7.484;2023-05-27T06:23:50;18.48;;;6.68;;
29776;SDS011;16677;52.224;7.484;2023-05-27T06:26:18;22.25;;;7.32;;
29776;SDS011;16677;52.224;7.484;2023-05-27T06:28:45;14.02;;;5.82;;
29776;SDS011;16677;52.224;7.484;2023-05-27T06:31:14;15.55;;;6.30;;
29776;SDS011;16677;52.224;7.484;2023-05-27T06:33:46;15.80;;;6.07;;
29776;SDS011;16677;52.224;7.484;2023-05-27T06:36:14;17.55;;;6.15;;
29776;SDS011;16677;52.224;7.484;2023-05-27T06:38:41;16.17;;;6.30;;
29776;SDS011;16677;52.224;7.484;2023-05-27T06:41:08;15.02;;;6.18;;
29776;SDS011;16677;52.224;7.484;2023-05-27T06:43:38;15.50;;;6.15;;
29776;SDS011;16677;52.224;7.484;2023-05-27T06:46:05;14.70;;;5.87;;
29776;SDS011;16677;52.224;7.484;2023-05-27T06:48:33;18.88;;;6.35;;
29776;SDS011;16677;52.224;7.484;2023-05-27T06:51:02;18.63;;;6.28;;
29776;SDS011;16677;52.224;7.484;2023-05-27T06:53:31;16.30;;;5.93;;
29776;SDS011;16677;52.224;7.484;2023-05-27T06:56:01;15.38;;;6.30;;
29776;SDS011;16677;52.224;7.484;2023-05-27T06:58:29;16.15;;;6.18;;
29776;SDS011;16677;52.224;7.484;2023-05-27T07:01:00;14.32;;;6.20;;
29776;SDS011;16677;52.224;7.484;2023-05-27T07:03:28;14.90;;;6.20;;
29776;SDS011;16677;52.224;7.484;2023-05-27T07:05:55;15.48;;;6.13;;
29776;SDS011;16677;52.224;7.484;2023-05-27T07:08:23;16.20;;;6.22;;
29776;SDS011;16677;52.224;7.484;2023-05-27T07:10:52;16.60;;;7.07;;
29776;SDS011;16677;52.224;7.484;2023-05-27T07:13:20;13.88;;;6.07;;
29776;SDS011;16677;52.224;7.484;2023-05-27T07:15:47;15.85;;;6.10;;
29776;SDS011;16677;52.224;7.484;2023-05-27T07:18:17;16.02;;;6.38;;
29776;SDS011;16677;52.224;7.484;2023-05-27T07:20:45;13.20;;;6.20;;
29776;SDS011;16677;52.224;7.484;2023-05-27T07:23:15;18.03;;;7.00;;
29776;SDS011;16677;52.224;7.484;2023-05-27T07:25:42;17.23;;;6.75;;
29776;SDS011;16677;52.224;7.484;2023-05-27T07:28:09;15.88;;;6.97;;
29776;SDS011;16677;52.224;7.484;2023-05-27T07:30:39;16.85;;;6.55;;
29776;SDS011;16677;52.224;7.484;2023-05-27T07:33:07;15.88;;;6.43;;
29776;SDS011;16677;52.224;7.484;2023-05-27T07:35:34;15.88;;;6.30;;
29776;SDS011;16677;52.224;7.484;2023-05-27T07:38:03;16.70;;;6.43;;
29776;SDS011;16677;52.224;7.484;2023-05-27T07:40:32;14.65;;;6.35;;
29776;SDS011;16677;52.224;7.484;2023-05-27T07:43:00;16.30;;;6.35;;
29776;SDS011;16677;52.224;7.484;2023-05-27T07:45:29;14.98;;;6.53;;
29776;SDS011;16677;52.224;7.484;2023-05-27T07:47:58;16.33;;;6.70;;
29776;SDS011;16677;52.224;7.484;2023-05-27T07:50:25;17.20;;;6.60;;
29776;SDS011;16677;52.224;7.484;2023-05-27T07:52:53;17.13;;;6.90;;
29776;SDS011;16677;52.224;7.484;2023-05-27T07:55:20;17.20;;;6.22;;
29776;SDS011;16677;52.224;7.484;2023-05-27T07:57:47;16.13;;;6.13;;
29776;SDS011;16677;52.224;7.484;2023-05-27T08:00:17;15.82;;;6.45;;
29776;SDS011;16677;52.224;7.484;2023-05-27T08:02:48;14.27;;;5.90;;
29776;SDS011;16677;52.224;7.484;2023-05-27T08:05:18;13.73;;;6.10;;
29776;SDS011;16677;52.224;7.484;2023-05-27T08:07:45;17.45;;;7.15;;
29776;SDS011;16677;52.224;7.484;2023-05-27T08:10:14;14.43;;;6.53;;
29776;SDS011;16677;52.224;7.484;2023-05-27T08:12:41;13.57;;;6.53;;
29776;SDS011;16677;52.224;7.484;2023-05-27T08:15:11;16.17;;;6.43;;
29776;SDS011;16677;52.224;7.484;2023-05-27T08:17:38;14.18;;;6.13;;
29776;SDS011;16677;52.224;7.484;2023-05-27T08:20:09;16.83;;;6.25;;
29776;SDS011;16677;52.224;7.484;2023-05-27T08:22:41;14.93;;;6.50;;
29776;SDS011;16677;52.224;7.484;2023-05-27T08:25:16;12.77;;;6.30;;
29776;SDS011;16677;52.224;7.484;2023-05-27T08:27:50;11.90;;;6.30;;
29776;SDS011;16677;52.224;7.484;2023-05-27T08:30:24;14.57;;;6.60;;
29776;SDS011;16677;52.224;7.484;2023-05-27T08:32:55;15.48;;;6.53;;
29776;SDS011;16677;52.224;7.484;2023-05-27T08:35:45;15.17;;;6.67;;
29776;SDS011;16677;52.224;7.484;2023-05-27T08:38:14;16.33;;;6.95;;
29776;SDS011;16677;52.224;7.484;2023-05-27T08:40:46;15.52;;;6.35;;
29776;SDS011;16677;52.224;7.484;2023-05-27T08:43:17;16.30;;;6.75;;
29776;SDS011;16677;52.224;7.484;2023-05-27T08:45:44;16.77;;;6.88;;
29776;SDS011;16677;52.224;7.484;2023-05-27T08:48:12;15.48;;;6.93;;
29776;SDS011;16677;52.224;7.484;2023-05-27T08:50:42;14.13;;;6.50;;
29776;SDS011;16677;52.224;7.484;2023-05-27T08:53:11;18.00;;;6.97;;
29776;SDS011;16677;52.224;7.484;2023-05-27T08:55:39;16.50;;;7.40;;
29776;SDS011;16677;52.224;7.484;2023-05-27T08:58:07;14.27;;;6.97;;
29776;SDS011;16677;52.224;7.484;2023-05-27T09:00:37;13.93;;;7.37;;
29776;SDS011;16677;52.224;7.484;2023-05-27T09:03:07;14.05;;;6.43;;
29776;SDS011;16677;52.224;7.484;2023-05-27T09:05:36;15.88;;;7.07;;
29776;SDS011;16677;52.224;7.484;2023-05-27T09:08:04;18.17;;;7.43;;
29776;SDS011;16677;52.224;7.484;2023-05-27T09:10:34;17.58;;;7.35;;
29776;SDS011;16677;52.224;7.484;2023-05-27T09:13:05;15.38;;;6.68;;
29776;SDS011;16677;52.224;7.484;2023-05-27T09:15:36;14.32;;;6.65;;
29776;SDS011;16677;52.224;7.484;2023-05-27T09:18:06;14.45;;;6.22;;
29776;SDS011;16677;52.224;7.484;2023-05-27T09:20:33;12.33;;;6.40;;
29776;SDS011;16677;52.224;7.484;2023-05-27T09:23:03;15.23;;;6.57;;
29776;SDS011;16677;52.224;7.484;2023-05-27T09:25:34;15.17;;;6.50;;
29776;SDS011;16677;52.224;7.484;2023-05-27T09:28:04;15.63;;;6.43;;
29776;SDS011;16677;52.224;7.484;2023-05-27T09:30:59;15.43;;;6.30;;
29776;SDS011;16677;52.224;7.484;2023-05-27T09:33:32;13.60;;;6.80;;
29776;SDS011;16677;52.224;7.484;2023-05-27T09:36:05;16.60;;;6.97;;
29776;SDS011;16677;52.224;7.484;2023-05-27T09:38:35;13.97;;;6.80;;
29776;SDS011;16677;52.224;7.484;2023-05-27T09:41:05;13.73;;;7.03;;
29776;SDS011;16677;52.224;7.484;2023-05-27T09:43:32;14.50;;;6.63;;
29776;SDS011;16677;52.224;7.484;2023-05-27T09:46:10;13.85;;;7.18;;
29776;SDS011;16677;52.224;7.484;2023-05-27T09:48:40;14.32;;;6.88;;
29776;SDS011;16677;52.224;7.484;2023-05-27T09:51:08;15.82;;;7.22;;
29776;SDS011;16677;52.224;7.484;2023-05-27T09:53:36;15.48;;;6.53;;
29776;SDS011;16677;52.224;7.484;2023-05-27T09:56:04;15.90;;;6.35;;
29776;SDS011;16677;52.224;7.484;2023-05-27T09:58:32;13.63;;;6.50;;
29776;SDS011;16677;52.224;7.484;2023-05-27T10:00:59;13.83;;;6.43;;
29776;SDS011;16677;52.224;7.484;2023-05-27T10:03:27;15.80;;;6.60;;
29776;SDS011;16677;52.224;7.484;2023-05-27T10:05:56;14.82;;;6.15;;
29776;SDS011;16677;52.224;7.484;2023-05-27T10:08:24;15.15;;;6.75;;
29776;SDS011;16677;52.224;7.484;2023-05-27T10:10:52;14.93;;;6.82;;
29776;SDS011;16677;52.224;7.484;2023-05-27T10:13:21;12.18;;;5.85;;
29776;SDS011;16677;52.224;7.484;2023-05-27T10:15:51;14.93;;;6.60;;
29776;SDS011;16677;52.224;7.484;2023-05-27T10:18:22;14.90;;;6.40;;
29776;SDS011;16677;52.224;7.484;2023-05-27T10:20:54;15.63;;;6.88;;
29776;SDS011;16677;52.224;7.484;2023-05-27T10:23:29;13.55;;;6.25;;
29776;SDS011;16677;52.224;7.484;2023-05-27T10:26:01;13.23;;;6.40;;
29776;SDS011;16677;52.224;7.484;2023-05-27T10:28:34;14.88;;;6.45;;
29776;SDS011;16677;52.224;7.484;2023-05-27T10:33:57;13.07;;;6.27;;
29776;SDS011;16677;52.224;7.484;2023-05-27T10:36:25;12.20;;;5.72;;
29776;SDS011;16677;52.224;7.484;2023-05-27T10:39:01;14.43;;;6.63;;
29776;SDS011;16677;52.224;7.484;2023-05-27T10:44:55;13.45;;;6.03;;
29776;SDS011;16677;52.224;7.484;2023-05-27T10:47:15;13.35;;;6.28;;
29776;SDS011;16677;52.224;7.484;2023-05-27T10:49:45;13.30;;;6.50;;
29776;SDS011;16677;52.224;7.484;2023-05-27T10:52:15;14.32;;;6.65;;
29776;SDS011;16677;52.224;7.484;2023-05-27T10:54:44;10.30;;;5.70;;
29776;SDS011;16677;52.224;7.484;2023-05-27T10:57:13;13.25;;;6.28;;
29776;SDS011;16677;52.224;7.484;2023-05-27T11:02:39;12.57;;;6.65;;
29776;SDS011;16677;52.224;7.484;2023-05-27T11:05:10;13.53;;;6.53;;
29776;SDS011;16677;52.224;7.484;2023-05-27T11:07:41;14.98;;;6.57;;
29776;SDS011;16677;52.224;7.484;2023-05-27T11:10:08;13.00;;;6.25;;
29776;SDS011;16677;52.224;7.484;2023-05-27T11:12:37;12.82;;;6.05;;
29776;SDS011;16677;52.224;7.484;2023-05-27T11:15:11;14.75;;;6.60;;
29776;SDS011;16677;52.224;7.484;2023-05-27T11:17:39;14.90;;;6.32;;
29776;SDS011;16677;52.224;7.484;2023-05-27T11:20:06;13.02;;;6.20;;
29776;SDS011;16677;52.224;7.484;2023-05-27T11:22:34;14.63;;;6.20;;
29776;SDS011;16677;52.224;7.484;2023-05-27T11:25:03;15.63;;;7.00;;
29776;SDS011;16677;52.224;7.484;2023-05-27T11:27:36;12.50;;;6.32;;
29776;SDS011;16677;52.224;7.484;2023-05-27T11:30:09;13.25;;;6.07;;
29776;SDS011;16677;52.224;7.484;2023-05-27T11:32:39;14.25;;;6.10;;
29776;SDS011;16677;52.224;7.484;2023-05-27T11:35:13;14.03;;;6.47;;
29776;SDS011;16677;52.224;7.484;2023-05-27T11:38:00;14.93;;;6.80;;
29776;SDS011;16677;52.224;7.484;2023-05-27T11:40:35;12.23;;;6.13;;
29776;SDS011;16677;52.224;7.484;2023-05-27T11:43:03;14.30;;;6.40;;
29776;SDS011;16677;52.224;7.484;2023-05-27T11:45:34;13.52;;;6.03;;
29776;SDS011;16677;52.224;7.484;2023-05-27T11:48:03;11.77;;;5.57;;
29776;SDS011;16677;52.224;7.484;2023-05-27T11:50:30;13.18;;;5.72;;
29776;SDS011;16677;52.224;7.484;2023-05-27T11:52:58;11.85;;;5.45;;
29776;SDS011;16677;52.224;7.484;2023-05-27T11:55:29;11.10;;;5.13;;
29776;SDS011;16677;52.224;7.484;2023-05-27T11:57:57;11.82;;;5.88;;
29776;SDS011;16677;52.224;7.484;2023-05-27T12:00:24;11.50;;;5.22;;
29776;SDS011;16677;52.224;7.484;2023-05-27T12:02:52;10.85;;;5.07;;
29776;SDS011;16677;52.224;7.484;2023-05-27T12:05:19;13.27;;;5.57;;
29776;SDS011;16677;52.224;7.484;2023-05-27T12:08:00;12.23;;;5.35;;
29776;SDS011;16677;52.224;7.484;2023-05-27T12:10:27;11.55;;;5.97;;
29776;SDS011;16677;52.224;7.484;2023-05-27T12:13:04;12.77;;;5.80;;
29776;SDS011;16677;52.224;7.484;2023-05-27T12:15:32;12.27;;;5.20;;
29776;SDS011;16677;52.224;7.484;2023-05-27T12:18:00;10.80;;;5.28;;
29776;SDS011;16677;52.224;7.484;2023-05-27T12:20:27;12.63;;;6.03;;
29776;SDS011;16677;52.224;7.484;2023-05-27T12:22:55;11.57;;;5.65;;
29776;SDS011;16677;52.224;7.484;2023-05-27T12:25:22;12.50;;;5.53;;
29776;SDS011;16677;52.224;7.484;2023-05-27T12:27:50;11.05;;;6.13;;
29776;SDS011;16677;52.224;7.484;2023-05-27T12:30:17;10.87;;;5.30;;
29776;SDS011;16677;52.224;7.484;2023-05-27T12:32:44;10.80;;;5.10;;
29776;SDS011;16677;52.224;7.484;2023-05-27T12:35:11;11.65;;;5.53;;
29776;SDS011;16677;52.224;7.484;2023-05-27T12:37:38;11.00;;;5.18;;
29776;SDS011;16677;52.224;7.484;2023-05-27T12:40:07;11.05;;;5.13;;
29776;SDS011;16677;52.224;7.484;2023-05-27T12:42:39;9.45;;;4.47;;
29776;SDS011;16677;52.224;7.484;2023-05-27T12:45:09;9.63;;;4.22;;
29776;SDS011;16677;52.224;7.484;2023-05-27T12:47:37;11.63;;;5.40;;
29776;SDS011;16677;52.224;7.484;2023-05-27T12:50:05;8.90;;;4.47;;
29776;SDS011;16677;52.224;7.484;2023-05-27T12:52:33;8.32;;;4.50;;
29776;SDS011;16677;52.224;7.484;2023-05-27T12:55:01;10.80;;;4.40;;
29776;SDS011;16677;52.224;7.484;2023-05-27T12:57:29;12.48;;;4.85;;
29776;SDS011;16677;52.224;7.484;2023-05-27T13:12:12;11.52;;;4.35;;
29776;SDS011;16677;52.224;7.484;2023-05-27T13:14:40;8.43;;;4.60;;
29776;SDS011;16677;52.224;7.484;2023-05-27T13:17:09;8.50;;;4.65;;
29776;SDS011;16677;52.224;7.484;2023-05-27T13:19:36;11.40;;;5.07;;
29776;SDS011;16677;52.224;7.484;2023-05-27T13:22:04;9.73;;;5.13;;
29776;SDS011;16677;52.224;7.484;2023-05-27T13:24:32;7.85;;;3.92;;
29776;SDS011;16677;52.224;7.484;2023-05-27T13:44:16;9.75;;;4.43;;
29776;SDS011;16677;52.224;7.484;2023-05-27T13:46:43;9.35;;;4.53;;
29776;SDS011;16677;52.224;7.484;2023-05-27T13:49:10;9.88;;;4.88;;
29776;SDS011;16677;52.224;7.484;2023-05-27T13:51:43;12.00;;;4.55;;
29776;SDS011;16677;52.224;7.484;2023-05-27T13:54:15;10.95;;;4.50;;
29776;SDS011;16677;52.224;7.484;2023-05-27T13:56:42;10.38;;;4.25;;
29776;SDS011;16677;52.224;7.484;2023-05-27T13:59:10;11.15;;;4.47;;
29776;SDS011;16677;52.224;7.484;2023-05-27T14:01:39;9.00;;;4.72;;
29776;SDS011;16677;52.224;7.484;2023-05-27T14:04:07;11.68;;;4.93;;
29776;SDS011;16677;52.224;7.484;2023-05-27T14:06:34;10.23;;;5.35;;
29776;SDS011;16677;52.224;7.484;2023-05-27T14:09:01;10.00;;;5.07;;
29776;SDS011;16677;52.224;7.484;2023-05-27T14:11:29;9.87;;;5.20;;
29776;SDS011;16677;52.224;7.484;2023-05-27T14:13:56;10.32;;;4.53;;
29776;SDS011;16677;52.224;7.484;2023-05-27T14:16:23;10.38;;;5.93;;
29776;SDS011;16677;52.224;7.484;2023-05-27T14:18:51;10.20;;;4.38;;
29776;SDS011;16677;52.224;7.484;2023-05-27T14:21:18;10.32;;;4.40;;
29776;SDS011;16677;52.224;7.484;2023-05-27T14:23:45;9.70;;;4.30;;
29776;SDS011;16677;52.224;7.484;2023-05-27T14:26:12;9.43;;;4.20;;
29776;SDS011;16677;52.224;7.484;2023-05-27T14:28:41;8.43;;;4.00;;
29776;SDS011;16677;52.224;7.484;2023-05-27T14:31:08;9.45;;;4.20;;
29776;SDS011;16677;52.224;7.484;2023-05-27T14:33:36;9.07;;;4.53;;
29776;SDS011;16677;52.224;7.484;2023-05-27T14:36:03;10.13;;;5.03;;
29776;SDS011;16677;52.224;7.484;2023-05-27T14:38:31;11.10;;;4.82;;
29776;SDS011;16677;52.224;7.484;2023-05-27T14:40:58;11.02;;;4.07;;
29776;SDS011;16677;52.224;7.484;2023-05-27T14:43:25;7.05;;;3.53;;
29776;SDS011;16677;52.224;7.484;2023-05-27T14:45:52;6.60;;;4.00;;
29776;SDS011;16677;52.224;7.484;2023-05-27T14:53:13;9.00;;;4.40;;
29776;SDS011;16677;52.224;7.484;2023-05-27T14:55:40;10.07;;;4.03;;
29776;SDS011;16677;52.224;7.484;2023-05-27T14:58:08;8.13;;;3.70;;
29776;SDS011;16677;52.224;7.484;2023-05-27T15:00:35;7.45;;;4.00;;
29776;SDS011;16677;52.224;7.484;2023-05-27T15:03:02;7.60;;;4.10;;
29776;SDS011;16677;52.224;7.484;2023-05-27T15:05:29;7.28;;;3.70;;
29776;SDS011;16677;52.224;7.484;2023-05-27T15:07:56;8.45;;;3.88;;
29776;SDS011;16677;52.224;7.484;2023-05-27T15:10:24;8.75;;;4.47;;
29776;SDS011;16677;52.224;7.484;2023-05-27T15:12:51;7.82;;;3.95;;
29776;SDS011;16677;52.224;7.484;2023-05-27T15:15:18;7.53;;;4.38;;
29776;SDS011;16677;52.224;7.484;2023-05-27T15:17:49;10.18;;;5.25;;
29776;SDS011;16677;52.224;7.484;2023-05-27T15:20:17;8.85;;;5.28;;
29776;SDS011;16677;52.224;7.484;2023-05-27T15:22:44;11.45;;;3.65;;
29776;SDS011;16677;52.224;7.484;2023-05-27T15:25:12;7.97;;;3.65;;
29776;SDS011;16677;52.224;7.484;2023-05-27T15:27:40;6.75;;;4.35;;
29776;SDS011;16677;52.224;7.484;2023-05-27T15:30:07;10.75;;;6.72;;
29776;SDS011;16677;52.224;7.484;2023-05-27T15:32:35;7.07;;;3.78;;
29776;SDS011;16677;52.224;7.484;2023-05-27T15:35:03;11.70;;;5.53;;
29776;SDS011;16677;52.224;7.484;2023-05-27T15:37:31;7.03;;;3.95;;
29776;SDS011;16677;52.224;7.484;2023-05-27T15:39:58;7.57;;;4.10;;
29776;SDS011;16677;52.224;7.484;2023-05-27T15:42:25;17.77;;;12.55;;
29776;SDS011;16677;52.224;7.484;2023-05-27T15:44:52;12.55;;;7.70;;
29776;SDS011;16677;52.224;7.484;2023-05-27T15:47:20;12.27;;;9.68;;